createdAt,value
2022-10-04T00:00:28.160Z,4.60
2022-10-04T00:03:02.095Z,4.37
2022-10-04T00:05:30.884Z,4.97
2022-10-04T00:08:06.776Z,4.50
2022-10-04T00:10:34.646Z,4.88
2022-10-04T00:13:14.899Z,4.35
2022-10-04T00:15:41.776Z,4.95
2022-10-04T00:18:11.244Z,4.78
2022-10-04T00:20:55.708Z,4.60
2022-10-04T00:23:25.354Z,4.93
2022-10-04T00:26:08.711Z,4.38
2022-10-04T00:28:39.798Z,4.70
2022-10-04T00:31:29.334Z,4.97
2022-10-04T00:34:18.805Z,4.95
2022-10-04T00:36:46.385Z,4.93
2022-10-04T00:39:24.330Z,4.70
2022-10-04T00:41:50.884Z,4.95
2022-10-04T00:44:39.121Z,5.32
2022-10-04T00:47:14.953Z,5.30
2022-10-04T00:49:45.166Z,5.07
2022-10-04T00:52:29.299Z,5.03
2022-10-04T00:55:05.231Z,5.20
2022-10-04T00:57:43.456Z,4.57
2022-10-04T01:00:16.599Z,5.00
2022-10-04T01:02:46.004Z,4.50
2022-10-04T01:05:17.453Z,4.60
2022-10-04T01:07:52.908Z,4.78
2022-10-04T01:10:27.374Z,4.90
2022-10-04T01:13:01.548Z,4.95
2022-10-04T01:15:54.029Z,4.53
2022-10-04T01:18:20.670Z,4.43
2022-10-04T01:20:56.405Z,4.88
2022-10-04T01:23:38.135Z,4.88
2022-10-04T01:26:32.229Z,4.75
2022-10-04T01:29:05.372Z,4.80
2022-10-04T01:31:34.395Z,5.45
2022-10-04T01:34:02.472Z,5.47
2022-10-04T01:36:29.609Z,5.55
2022-10-04T01:38:56.638Z,6.47
2022-10-04T01:41:35.068Z,5.55
2022-10-04T01:44:04.183Z,5.78
2022-10-04T01:46:36.837Z,5.55
2022-10-04T01:49:10.855Z,5.82
2022-10-04T01:51:44.542Z,5.88
2022-10-04T01:54:16.219Z,5.50
2022-10-04T01:56:46.926Z,6.13
2022-10-04T01:59:30.589Z,5.70
2022-10-04T02:02:06.641Z,5.63
2022-10-04T02:04:38.736Z,5.45
2022-10-04T02:07:12.499Z,6.20
2022-10-04T02:09:43.696Z,5.80
2022-10-04T02:12:16.440Z,4.95
2022-10-04T02:14:53.146Z,5.70
2022-10-04T02:17:30.205Z,5.80
2022-10-04T02:19:58.942Z,5.40
2022-10-04T02:22:26.469Z,5.50
2022-10-04T02:24:56.019Z,6.28
2022-10-04T02:27:29.330Z,5.32
2022-10-04T02:30:08.158Z,5.72
2022-10-04T02:32:53.672Z,5.80
2022-10-04T02:35:20.835Z,5.85
2022-10-04T02:37:53.325Z,5.78
2022-10-04T02:40:27.101Z,6.32
2022-10-04T02:43:00.444Z,6.03
2022-10-04T02:45:55.452Z,5.95
2022-10-04T02:51:16.023Z,5.90
2022-10-04T02:54:03.115Z,6.15
2022-10-04T02:56:31.702Z,5.47
2022-10-04T02:59:06.486Z,6.45
2022-10-04T03:01:50.927Z,6.00
2022-10-04T03:04:21.025Z,5.53
2022-10-04T03:06:47.859Z,6.18
2022-10-04T03:09:15.481Z,6.45
2022-10-04T03:11:43.099Z,5.88
2022-10-04T03:14:14.736Z,6.05
2022-10-04T03:16:45.204Z,5.95
2022-10-04T03:19:14.308Z,6.13
2022-10-04T03:21:43.798Z,5.75
2022-10-04T03:24:17.805Z,6.03
2022-10-04T03:26:50.504Z,6.15
2022-10-04T03:29:19.170Z,5.97
2022-10-04T03:31:51.591Z,6.15
2022-10-04T03:34:21.543Z,6.28
2022-10-04T03:36:49.960Z,6.07
2022-10-04T03:39:34.043Z,6.10
2022-10-04T03:42:10.398Z,6.63
2022-10-04T03:44:37.828Z,5.93
2022-10-04T03:47:11.113Z,6.20
2022-10-04T03:49:38.505Z,6.07
2022-10-04T03:52:07.301Z,6.50
2022-10-04T03:54:35.396Z,5.70
2022-10-04T03:57:02.877Z,5.75
2022-10-04T03:59:29.936Z,5.95
2022-10-04T04:02:11.315Z,6.05
2022-10-04T04:05:07.830Z,5.72
2022-10-04T04:08:03.756Z,6.05
2022-10-04T04:10:37.438Z,6.18
2022-10-04T04:13:19.583Z,6.18
2022-10-04T04:15:47.668Z,6.10
2022-10-04T04:18:25.549Z,5.78
2022-10-04T04:20:58.996Z,6.40
2022-10-04T04:23:43.391Z,6.55
2022-10-04T04:26:40.874Z,5.32
2022-10-04T04:29:32.269Z,5.50
2022-10-04T04:32:18.094Z,6.32
2022-10-04T04:35:08.674Z,6.15
2022-10-04T04:37:36.393Z,6.00
2022-10-04T04:40:32.817Z,5.75
2022-10-04T04:43:01.508Z,6.00
2022-10-04T04:45:30.844Z,5.85
2022-10-04T04:47:59.020Z,6.25
2022-10-04T04:50:40.761Z,6.38
2022-10-04T04:53:16.058Z,6.22
2022-10-04T04:56:02.883Z,6.30
2022-10-04T04:58:43.760Z,5.70
2022-10-04T05:01:28.210Z,6.47
2022-10-04T05:04:03.288Z,6.30
2022-10-04T05:06:31.541Z,6.45
2022-10-04T05:08:58.278Z,6.28
2022-10-04T05:11:32.042Z,6.45
2022-10-04T05:14:05.834Z,6.25
2022-10-04T05:16:41.298Z,6.18
2022-10-04T05:19:24.394Z,6.35
2022-10-04T05:21:54.252Z,6.25
2022-10-04T05:24:33.801Z,5.70
2022-10-04T05:27:21.806Z,6.20
2022-10-04T05:30:14.429Z,6.60
2022-10-04T05:32:59.070Z,6.03
2022-10-04T05:35:27.670Z,5.90
2022-10-04T05:38:29.646Z,6.38
2022-10-04T05:41:01.803Z,6.43
2022-10-04T05:43:38.236Z,6.18
2022-10-04T05:46:25.981Z,7.13
2022-10-04T05:49:01.009Z,6.60
2022-10-04T05:51:37.649Z,7.15
2022-10-04T05:54:05.417Z,6.82
2022-10-04T05:56:51.028Z,6.57
2022-10-04T05:59:32.940Z,6.93
2022-10-04T06:02:31.266Z,7.40
2022-10-04T06:05:29.369Z,7.00
2022-10-04T06:08:19.998Z,6.82
2022-10-04T06:10:59.214Z,7.32
2022-10-04T06:13:34.055Z,7.07
2022-10-04T06:16:45.487Z,7.70
2022-10-04T06:19:35.440Z,7.28
2022-10-04T06:22:17.990Z,6.90
2022-10-04T06:24:49.898Z,7.45
2022-10-04T06:27:35.694Z,7.10
2022-10-04T06:30:05.264Z,7.45
2022-10-04T06:32:50.851Z,6.82
2022-10-04T06:35:34.962Z,7.15
2022-10-04T06:38:08.788Z,7.15
2022-10-04T06:40:41.460Z,7.25
2022-10-04T06:43:25.237Z,7.03
2022-10-04T06:46:00.693Z,7.53
2022-10-04T06:48:42.537Z,7.35
2022-10-04T06:51:24.833Z,7.70
2022-10-04T06:54:03.449Z,6.70
2022-10-04T06:56:39.230Z,8.18
2022-10-04T06:59:29.716Z,7.53
2022-10-04T07:02:00.090Z,8.25
2022-10-04T07:05:08.220Z,8.00
2022-10-04T07:07:38.668Z,7.97
2022-10-04T07:10:32.776Z,7.85
2022-10-04T07:13:17.981Z,8.07
2022-10-04T07:16:27.352Z,8.20
2022-10-04T07:19:10.993Z,8.75
2022-10-04T07:21:49.886Z,8.35
2022-10-04T07:24:25.895Z,8.27
2022-10-04T07:26:54.952Z,8.27
2022-10-04T07:29:32.016Z,8.57
2022-10-04T07:32:05.671Z,8.70
2022-10-04T07:34:45.384Z,8.05
2022-10-04T07:37:13.821Z,8.25
2022-10-04T07:40:02.106Z,8.57
2022-10-04T07:42:44.465Z,7.75
2022-10-04T07:45:30.343Z,7.78
2022-10-04T07:48:16.438Z,7.28
2022-10-04T07:51:10.663Z,7.55
2022-10-04T07:53:53.511Z,8.00
2022-10-04T07:56:47.331Z,7.40
2022-10-04T07:59:18.076Z,6.40
2022-10-04T08:02:17.074Z,7.05
2022-10-04T08:05:02.897Z,7.18
2022-10-04T08:08:00.941Z,7.10
2022-10-04T08:10:48.528Z,6.63
2022-10-04T08:13:36.241Z,6.40
2022-10-04T08:16:10.152Z,6.40
2022-10-04T08:18:48.796Z,6.10
2022-10-04T08:21:18.636Z,6.30
2022-10-04T08:24:20.294Z,6.63
2022-10-04T08:27:25.289Z,6.82
2022-10-04T08:30:12.587Z,6.50
2022-10-04T08:33:07.995Z,7.07
2022-10-04T08:35:36.525Z,6.28
2022-10-04T08:38:43.185Z,6.60
2022-10-04T08:41:55.459Z,6.43
2022-10-04T08:44:52.487Z,5.93
2022-10-04T08:47:44.270Z,6.70
2022-10-04T08:50:28.822Z,5.93
2022-10-04T08:53:29.712Z,7.10
2022-10-04T08:56:27.245Z,6.70
2022-10-04T08:59:17.930Z,5.95
2022-10-04T09:02:22.551Z,6.43
2022-10-04T09:04:56.566Z,6.20
2022-10-04T09:07:46.270Z,6.43
2022-10-04T09:10:31.755Z,5.53
2022-10-04T09:13:35.376Z,6.13
2022-10-04T09:16:19.092Z,5.80
2022-10-04T09:19:13.536Z,6.00
2022-10-04T09:22:07.203Z,6.88
2022-10-04T09:24:43.178Z,6.80
2022-10-04T09:27:54.206Z,6.35
2022-10-04T09:30:43.876Z,5.60
2022-10-04T09:33:39.404Z,6.57
2022-10-04T09:36:15.237Z,5.43
2022-10-04T09:39:28.580Z,7.15
2022-10-04T09:42:22.212Z,6.38
2022-10-04T09:45:06.035Z,5.93
2022-10-04T09:48:07.779Z,5.85
2022-10-04T09:50:40.371Z,5.47
2022-10-04T09:53:52.897Z,6.10
2022-10-04T09:56:36.769Z,4.70
2022-10-04T09:59:22.798Z,5.70
2022-10-04T10:02:06.931Z,5.72
2022-10-04T10:05:12.107Z,5.72
2022-10-04T10:07:58.352Z,6.20
2022-10-04T10:11:10.066Z,5.85
2022-10-04T10:14:08.564Z,5.60
2022-10-04T10:16:54.184Z,5.30
2022-10-04T10:19:52.260Z,5.28
2022-10-04T10:22:29.037Z,5.57
2022-10-04T10:25:25.253Z,5.35
2022-10-04T10:28:01.067Z,4.80
2022-10-04T10:31:08.493Z,5.65
2022-10-04T10:34:01.532Z,5.05
2022-10-04T10:36:34.235Z,5.13
2022-10-04T10:39:22.502Z,5.00
2022-10-04T10:42:12.058Z,5.25
2022-10-04T10:44:58.720Z,5.65
2022-10-04T10:47:52.663Z,5.13
2022-10-04T10:51:00.238Z,5.72
2022-10-04T10:54:05.271Z,4.82
2022-10-04T10:56:38.285Z,4.10
2022-10-04T10:59:33.138Z,3.97
2022-10-04T11:02:01.159Z,4.43
2022-10-04T11:04:38.755Z,4.82
2022-10-04T11:07:25.049Z,4.70
2022-10-04T11:10:20.952Z,3.15
2022-10-04T11:13:02.437Z,4.40
2022-10-04T11:15:57.207Z,5.30
2022-10-04T11:19:16.092Z,4.78
2022-10-04T11:22:14.088Z,4.60
2022-10-04T11:24:46.485Z,5.20
2022-10-04T11:27:49.190Z,4.78
2022-10-04T11:30:24.741Z,5.10
2022-10-04T11:32:54.350Z,4.82
2022-10-04T11:35:44.378Z,4.60
2022-10-04T11:38:35.667Z,4.97
2022-10-04T11:41:34.459Z,4.70
2022-10-04T11:44:34.150Z,4.05
2022-10-04T11:47:13.330Z,4.10
2022-10-04T11:50:08.604Z,3.85
2022-10-04T11:52:57.401Z,3.80
2022-10-04T11:55:46.113Z,3.38
2022-10-04T11:58:50.478Z,4.18
2022-10-04T12:02:00.964Z,3.75
2022-10-04T12:05:22.052Z,4.03
2022-10-04T12:07:57.182Z,3.65
2022-10-04T12:10:38.975Z,4.07
2022-10-04T12:13:42.794Z,3.42
2022-10-04T12:16:27.487Z,3.33
2022-10-04T12:19:02.903Z,3.50
2022-10-04T12:21:34.954Z,3.35
2022-10-04T12:24:34.919Z,3.40
2022-10-04T12:27:26.417Z,3.67
2022-10-04T12:30:04.024Z,3.80
2022-10-04T12:32:57.577Z,3.63
2022-10-04T12:35:45.679Z,3.35
2022-10-04T12:38:45.111Z,2.92
2022-10-04T12:41:30.319Z,2.60
2022-10-04T12:44:15.839Z,2.95
2022-10-04T12:46:54.527Z,3.10
2022-10-04T12:49:47.937Z,2.90
2022-10-04T12:52:21.648Z,3.03
2022-10-04T12:55:14.177Z,3.50
2022-10-04T12:58:04.227Z,2.80
2022-10-04T13:00:38.699Z,2.80
2022-10-04T13:04:02.878Z,3.28
2022-10-04T13:06:55.635Z,2.95
2022-10-04T13:10:25.391Z,2.92
2022-10-04T13:13:41.072Z,3.05
2022-10-04T13:19:11.524Z,3.20
2022-10-04T13:22:07.703Z,3.10
2022-10-04T13:25:04.826Z,3.38
2022-10-04T13:27:38.336Z,3.38
2022-10-04T13:30:16.326Z,3.60
2022-10-04T13:33:03.512Z,3.83
2022-10-04T13:35:36.727Z,3.20
2022-10-04T13:38:35.570Z,3.45
2022-10-04T13:41:30.823Z,2.92
2022-10-04T13:44:27.770Z,3.22
2022-10-04T13:47:33.409Z,3.50
2022-10-04T13:50:12.196Z,2.85
2022-10-04T13:53:19.881Z,3.83
2022-10-04T13:56:30.121Z,3.55
2022-10-04T13:59:12.819Z,3.10
2022-10-04T14:02:00.772Z,3.60
2022-10-04T14:05:11.960Z,3.90
2022-10-04T14:08:04.652Z,3.88
2022-10-04T14:10:55.480Z,4.20
2022-10-04T14:13:51.174Z,3.78
2022-10-04T14:16:57.129Z,3.90
2022-10-04T14:20:00.362Z,3.70
2022-10-04T14:22:53.746Z,3.60
2022-10-04T14:25:58.617Z,3.55
2022-10-04T14:28:58.964Z,3.35
2022-10-04T14:31:55.676Z,3.50
2022-10-04T14:34:53.927Z,3.42
2022-10-04T14:37:57.366Z,3.65
2022-10-04T14:40:33.055Z,3.53
2022-10-04T14:43:23.798Z,3.13
2022-10-04T14:46:16.875Z,3.20
2022-10-04T14:49:21.515Z,3.10
2022-10-04T14:52:08.451Z,3.30
2022-10-04T14:55:04.023Z,2.80
2022-10-04T14:57:59.113Z,2.58
2022-10-04T15:00:55.045Z,3.00
2022-10-04T15:03:32.035Z,2.95
2022-10-04T15:06:09.059Z,3.05
2022-10-04T15:08:44.805Z,2.40
2022-10-04T15:11:17.000Z,3.00
2022-10-04T15:13:55.832Z,2.60
2022-10-04T15:16:47.172Z,2.75
2022-10-04T15:19:20.323Z,3.28
2022-10-04T15:21:55.815Z,3.13
2022-10-04T15:24:46.611Z,2.65
2022-10-04T15:27:35.048Z,2.83
2022-10-04T15:30:23.761Z,2.78
2022-10-04T15:33:14.529Z,2.85
2022-10-04T15:35:56.897Z,3.30
2022-10-04T15:38:35.947Z,3.00
2022-10-04T15:41:26.173Z,3.00
2022-10-04T15:44:48.685Z,3.20
2022-10-04T15:47:25.004Z,3.03
2022-10-04T15:50:23.452Z,3.20
2022-10-04T15:52:55.421Z,2.67
2022-10-04T15:55:47.219Z,2.60
2022-10-04T15:58:28.910Z,2.55
2022-10-04T16:01:08.959Z,2.80
2022-10-04T16:04:00.433Z,2.78
2022-10-04T16:06:58.128Z,2.90
2022-10-04T16:09:38.967Z,2.67
2022-10-04T16:12:22.346Z,2.65
2022-10-04T16:14:56.366Z,3.00
2022-10-04T16:20:27.976Z,2.75
2022-10-04T16:23:27.967Z,2.97
2022-10-04T16:25:56.810Z,3.25
2022-10-04T16:28:37.419Z,3.33
2022-10-04T16:31:24.925Z,3.10
2022-10-04T16:34:08.668Z,2.72
2022-10-04T16:36:53.775Z,3.25
2022-10-04T16:40:02.005Z,3.00
2022-10-04T16:42:49.799Z,3.45
2022-10-04T16:45:37.312Z,3.20
2022-10-04T16:48:23.332Z,3.22
2022-10-04T16:51:05.099Z,3.08
2022-10-04T16:53:53.256Z,3.47
2022-10-04T16:56:28.122Z,3.40
2022-10-04T16:59:13.143Z,3.10
2022-10-04T17:02:00.594Z,3.63
2022-10-04T17:04:36.559Z,2.92
2022-10-04T17:07:18.300Z,3.28
2022-10-04T17:09:58.737Z,3.47
2022-10-04T17:12:45.492Z,3.22
2022-10-04T17:15:15.187Z,3.53
2022-10-04T17:17:42.872Z,3.65
2022-10-04T17:20:24.131Z,3.67
2022-10-04T17:23:09.325Z,4.20
2022-10-04T17:25:43.083Z,3.72
2022-10-04T17:28:30.550Z,3.92
2022-10-04T17:31:06.385Z,3.72
2022-10-04T17:33:57.828Z,3.72
2022-10-04T17:36:38.608Z,4.15
2022-10-04T17:39:44.558Z,5.00
2022-10-04T17:42:25.691Z,4.07
2022-10-04T17:45:13.672Z,4.40
2022-10-04T17:48:15.641Z,4.20
2022-10-04T17:51:19.087Z,3.67
2022-10-04T17:54:09.529Z,3.95
2022-10-04T17:56:42.100Z,4.00
2022-10-04T17:59:18.082Z,4.10
2022-10-04T18:01:49.504Z,4.07
2022-10-04T18:04:30.415Z,3.83
2022-10-04T18:07:18.760Z,4.00
2022-10-04T18:09:52.484Z,3.83
2022-10-04T18:12:33.335Z,3.30
2022-10-04T18:15:28.733Z,3.20
2022-10-04T18:18:08.127Z,3.50
2022-10-04T18:20:47.069Z,3.58
2022-10-04T18:23:32.274Z,4.00
2022-10-04T18:26:18.202Z,4.13
2022-10-04T18:28:47.397Z,4.05
2022-10-04T18:31:34.276Z,4.45
2022-10-04T18:34:16.450Z,3.95
2022-10-04T18:36:51.204Z,4.15
2022-10-04T18:39:21.769Z,4.00
2022-10-04T18:42:02.153Z,4.32
2022-10-04T18:44:43.969Z,4.03
2022-10-04T18:47:25.166Z,4.07
2022-10-04T18:49:54.416Z,4.47
2022-10-04T18:52:43.963Z,3.92
2022-10-04T18:55:35.764Z,4.00
2022-10-04T18:58:51.374Z,4.00
2022-10-04T19:02:07.266Z,4.05
2022-10-04T19:04:45.863Z,4.18
2022-10-04T19:07:16.522Z,3.83
2022-10-04T19:10:09.302Z,3.95
2022-10-04T19:12:50.937Z,4.50
2022-10-04T19:15:17.652Z,4.22
2022-10-04T19:17:54.939Z,4.03
2022-10-04T19:20:54.690Z,3.85
2022-10-04T19:23:24.442Z,3.83
2022-10-04T19:26:29.960Z,4.00
2022-10-04T19:31:17.003Z,3.88
2022-10-04T19:33:56.222Z,3.83
2022-10-04T19:36:47.080Z,4.68
2022-10-04T19:39:36.063Z,4.50
2022-10-04T19:42:13.261Z,4.28
2022-10-04T19:45:21.335Z,3.97
2022-10-04T19:47:58.319Z,3.55
2022-10-04T19:50:56.801Z,4.25
2022-10-04T19:53:45.201Z,4.45
2022-10-04T19:56:19.335Z,3.97
2022-10-04T20:01:23.279Z,3.90
2022-10-04T20:04:11.917Z,3.90
2022-10-04T20:06:49.911Z,4.07
2022-10-04T20:09:25.157Z,4.00
2022-10-04T20:11:53.630Z,3.90
2022-10-04T20:14:23.458Z,4.10
2022-10-04T20:16:50.745Z,3.85
2022-10-04T20:19:37.094Z,4.22
2022-10-04T20:22:13.071Z,4.35
2022-10-04T20:24:39.737Z,4.00
2022-10-04T20:27:28.241Z,4.32
2022-10-04T20:29:56.047Z,3.95
2022-10-04T20:32:36.507Z,3.92
2022-10-04T20:35:11.973Z,4.90
2022-10-04T20:37:44.285Z,4.30
2022-10-04T20:40:40.153Z,4.10
2022-10-04T20:43:15.667Z,4.60
2022-10-04T20:45:48.179Z,4.60
2022-10-04T20:48:23.758Z,4.47
2022-10-04T20:50:51.271Z,4.60
2022-10-04T20:53:19.981Z,4.30
2022-10-04T20:55:47.178Z,4.53
2022-10-04T20:58:35.506Z,4.50
